Terminal Aerodrome Forecast
Issued by NWS Omaha/Valley, NE

Home | Current Version | Previous Version | Text Only | Print | Product List | Glossary On
Versions: 1 2 3 4 5 6 7 8 9 10 11 12 13 14 15 16 17 18 19 20 21
000
FTUS43 KOAX 161121
TAFLNK
TAF
KLNK 161121Z 1612/1712 18018G28KT P6SM BKN150 WS020/20060KT
     FM161400 22024G32KT P6SM BKN150
     FM162100 31024G32KT P6SM BKN070
     FM170200 35014KT P6SM SCT070
     FM170600 34011KT P6SM SCT070=

USA.gov is the U.S. government's official web portal to all federal, state and local government web resources and services.